createdAt,value
2023-03-29T00:02:07.570Z,16.95
2023-03-29T00:04:35.658Z,14.05
2023-03-29T00:07:05.517Z,16.85
2023-03-29T00:09:33.504Z,16.73
2023-03-29T00:12:01.606Z,14.52
2023-03-29T00:14:31.521Z,14.75
2023-03-29T00:16:59.501Z,12.85
2023-03-29T00:19:27.260Z,14.65
2023-03-29T00:21:57.056Z,14.57
2023-03-29T00:24:24.664Z,14.65
2023-03-29T00:26:52.410Z,14.77
2023-03-29T00:29:22.740Z,18.65
2023-03-29T00:31:50.386Z,19.77
2023-03-29T00:34:19.023Z,16.58
2023-03-29T00:36:48.816Z,12.95
2023-03-29T00:39:16.729Z,16.85
2023-03-29T00:41:44.589Z,18.20
2023-03-29T00:44:12.870Z,18.40
2023-03-29T00:46:40.522Z,16.55
2023-03-29T00:49:08.472Z,17.58
2023-03-29T00:51:41.242Z,14.55
2023-03-29T00:54:08.913Z,18.90
2023-03-29T00:56:36.589Z,12.98
2023-03-29T00:59:06.568Z,15.65
2023-03-29T01:01:34.512Z,15.57
2023-03-29T01:04:02.181Z,18.13
2023-03-29T01:06:32.135Z,13.52
2023-03-29T01:08:59.910Z,12.50
2023-03-29T01:11:27.454Z,15.70
2023-03-29T01:13:55.352Z,13.15
2023-03-29T01:16:23.007Z,12.65
2023-03-29T01:18:50.627Z,15.52
2023-03-29T01:21:20.905Z,11.27
2023-03-29T01:23:48.644Z,14.60
2023-03-29T01:26:16.315Z,11.93
2023-03-29T01:28:46.127Z,10.88
2023-03-29T01:31:13.790Z,16.20
2023-03-29T01:33:41.652Z,15.20
2023-03-29T01:36:11.449Z,12.98
2023-03-29T01:38:39.313Z,16.23
2023-03-29T01:41:07.215Z,13.02
2023-03-29T01:43:37.122Z,11.10
2023-03-29T01:46:04.717Z,14.88
2023-03-29T01:48:32.360Z,12.98
2023-03-29T01:51:02.398Z,12.38
2023-03-29T01:53:30.266Z,12.90
2023-03-29T01:55:57.791Z,12.65
2023-03-29T01:58:27.620Z,15.75
2023-03-29T02:00:55.622Z,13.02
2023-03-29T02:03:23.356Z,11.18
2023-03-29T02:05:53.570Z,13.18
2023-03-29T02:08:21.258Z,12.90
2023-03-29T02:10:48.930Z,12.00
2023-03-29T02:13:16.568Z,12.90
2023-03-29T02:15:45.154Z,13.38
2023-03-29T02:18:13.172Z,17.48
2023-03-29T02:20:41.883Z,13.80
2023-03-29T02:23:09.544Z,11.07
2023-03-29T02:25:37.331Z,12.68
2023-03-29T02:28:10.054Z,14.48
2023-03-29T02:30:37.677Z,11.70
2023-03-29T02:33:05.653Z,14.25
2023-03-29T02:35:35.636Z,12.77
2023-03-29T02:38:03.376Z,13.27
2023-03-29T02:40:31.088Z,17.88
2023-03-29T02:43:00.865Z,16.75
2023-03-29T02:45:28.655Z,14.30
2023-03-29T02:47:56.987Z,14.25
2023-03-29T02:50:25.861Z,14.23
2023-03-29T02:52:53.682Z,14.13
2023-03-29T02:55:21.325Z,14.90
2023-03-29T02:57:51.138Z,12.43
2023-03-29T03:00:18.955Z,10.85
2023-03-29T03:02:46.592Z,10.38
2023-03-29T03:05:16.401Z,12.52
2023-03-29T03:07:43.937Z,12.00
2023-03-29T03:10:11.494Z,10.70
2023-03-29T03:12:41.314Z,11.27
2023-03-29T03:15:09.118Z,16.13
2023-03-29T03:17:36.938Z,10.70
2023-03-29T03:20:06.671Z,15.80
2023-03-29T03:22:34.903Z,11.27
2023-03-29T03:25:02.644Z,10.95
2023-03-29T03:27:32.556Z,12.30
2023-03-29T03:30:00.175Z,12.85
2023-03-29T03:32:27.775Z,17.25
2023-03-29T03:34:57.451Z,15.85
2023-03-29T03:37:25.250Z,14.43
2023-03-29T03:39:52.759Z,13.00
2023-03-29T03:42:22.551Z,12.13
2023-03-29T03:44:50.384Z,14.65
2023-03-29T03:47:18.002Z,14.57
2023-03-29T03:49:48.015Z,11.77
2023-03-29T03:52:18.904Z,11.52
2023-03-29T03:54:46.549Z,10.20
2023-03-29T03:57:14.310Z,10.07
2023-03-29T03:59:42.319Z,10.05
2023-03-29T04:02:10.173Z,16.20
2023-03-29T04:04:40.028Z,12.90
2023-03-29T04:07:07.849Z,9.93
2023-03-29T04:09:35.679Z,10.60
2023-03-29T04:12:04.177Z,13.23
2023-03-29T04:14:32.722Z,10.48
2023-03-29T04:17:00.535Z,11.40
2023-03-29T04:19:30.725Z,12.50
2023-03-29T04:21:58.504Z,12.63
2023-03-29T04:24:26.080Z,13.30
2023-03-29T04:26:55.657Z,21.95
2023-03-29T04:29:23.652Z,11.65
2023-03-29T04:31:51.296Z,13.02
2023-03-29T04:34:21.051Z,15.10
2023-03-29T04:36:48.777Z,14.23
2023-03-29T04:39:16.271Z,16.50
2023-03-29T04:41:46.176Z,12.35
2023-03-29T04:44:13.895Z,13.38
2023-03-29T04:46:41.550Z,12.25
2023-03-29T04:49:11.541Z,12.65
2023-03-29T04:51:39.386Z,9.18
2023-03-29T04:54:07.220Z,11.45
2023-03-29T04:56:37.159Z,9.82
2023-03-29T04:59:04.896Z,12.23
2023-03-29T05:01:32.454Z,11.25
2023-03-29T05:04:02.496Z,15.70
2023-03-29T05:06:30.217Z,10.60
2023-03-29T05:08:57.863Z,11.85
2023-03-29T05:11:29.635Z,10.15
2023-03-29T05:13:57.381Z,9.27
2023-03-29T05:16:25.010Z,10.18
2023-03-29T05:18:54.544Z,11.02
2023-03-29T05:21:22.459Z,11.57
2023-03-29T05:23:50.017Z,12.23
2023-03-29T05:26:19.516Z,8.82
2023-03-29T05:28:47.275Z,8.38
2023-03-29T05:31:16.782Z,9.30
2023-03-29T05:33:46.752Z,9.25
2023-03-29T05:36:14.395Z,9.13
2023-03-29T05:38:42.016Z,7.82
2023-03-29T05:41:11.513Z,9.50
2023-03-29T05:43:39.164Z,9.65
2023-03-29T05:46:11.045Z,8.32
2023-03-29T05:48:41.255Z,8.52
2023-03-29T05:51:08.844Z,8.07
2023-03-29T05:53:36.405Z,9.70
2023-03-29T05:56:06.504Z,10.30
2023-03-29T05:58:34.161Z,9.82
2023-03-29T06:01:02.135Z,8.88
2023-03-29T06:03:30.322Z,11.55
2023-03-29T06:05:58.015Z,12.32
2023-03-29T06:08:25.617Z,11.25
2023-03-29T06:10:55.648Z,8.80
2023-03-29T06:13:23.752Z,11.63
2023-03-29T06:15:51.476Z,9.18
2023-03-29T06:18:21.618Z,10.60
2023-03-29T06:20:49.209Z,9.23
2023-03-29T06:23:16.794Z,9.52
2023-03-29T06:25:47.104Z,9.48
2023-03-29T06:28:14.667Z,9.48
2023-03-29T06:30:42.314Z,11.02
2023-03-29T06:33:12.452Z,10.85
2023-03-29T06:35:40.085Z,9.25
2023-03-29T06:38:07.721Z,12.43
2023-03-29T06:40:37.888Z,10.52
2023-03-29T06:43:05.536Z,9.43
2023-03-29T06:45:34.114Z,9.02
2023-03-29T06:48:04.222Z,14.00
2023-03-29T06:50:32.120Z,10.43
2023-03-29T06:53:02.482Z,11.50
2023-03-29T06:55:32.449Z,9.05
2023-03-29T06:58:01.803Z,9.35
2023-03-29T07:00:30.421Z,9.18
2023-03-29T07:03:00.372Z,8.88
2023-03-29T07:05:28.095Z,10.15
2023-03-29T07:07:55.711Z,12.27
2023-03-29T07:10:25.573Z,9.18
2023-03-29T07:12:53.222Z,10.30
2023-03-29T07:15:20.828Z,14.88
2023-03-29T07:17:48.734Z,9.45
2023-03-29T07:20:16.532Z,13.88
2023-03-29T07:22:46.264Z,9.43
2023-03-29T07:25:16.330Z,10.55
2023-03-29T07:27:43.962Z,10.88
2023-03-29T07:30:12.027Z,12.60
2023-03-29T07:32:40.351Z,12.38
2023-03-29T07:35:07.919Z,24.88
2023-03-29T07:37:35.487Z,21.40
2023-03-29T07:40:05.331Z,14.93
2023-03-29T07:42:34.238Z,17.60
2023-03-29T07:45:01.923Z,12.18
2023-03-29T07:47:32.556Z,10.82
2023-03-29T07:50:00.297Z,18.20
2023-03-29T07:52:27.986Z,10.73
2023-03-29T07:54:58.156Z,9.93
2023-03-29T07:57:26.369Z,9.68
2023-03-29T07:59:54.840Z,9.45
2023-03-29T08:02:24.859Z,8.80
2023-03-29T08:04:52.631Z,8.32
2023-03-29T08:07:20.527Z,8.82
2023-03-29T08:09:50.520Z,8.05
2023-03-29T08:12:18.075Z,7.95
2023-03-29T08:14:45.771Z,8.35
2023-03-29T08:17:15.763Z,7.60
2023-03-29T08:19:50.832Z,8.00
2023-03-29T08:22:19.623Z,7.07
2023-03-29T08:24:47.233Z,8.15
2023-03-29T08:27:14.862Z,8.88
2023-03-29T08:29:44.083Z,8.52
2023-03-29T08:32:11.709Z,7.80
2023-03-29T08:34:39.257Z,8.18
2023-03-29T08:37:09.396Z,8.43
2023-03-29T08:39:37.031Z,9.20
2023-03-29T08:42:04.629Z,10.50
2023-03-29T08:44:32.880Z,15.82
2023-03-29T08:47:00.810Z,7.60
2023-03-29T08:49:28.515Z,8.00
2023-03-29T08:51:58.794Z,9.77
2023-03-29T08:54:26.437Z,8.45
2023-03-29T08:56:54.264Z,10.73
2023-03-29T08:59:24.369Z,11.20
2023-03-29T09:01:52.158Z,10.63
2023-03-29T09:04:19.893Z,8.60
2023-03-29T09:06:47.907Z,10.20
2023-03-29T09:09:15.533Z,8.63
2023-03-29T09:11:43.194Z,10.00
2023-03-29T09:14:13.386Z,9.88
2023-03-29T09:16:40.973Z,10.65
2023-03-29T09:19:08.555Z,12.68
2023-03-29T09:21:36.586Z,10.65
2023-03-29T09:24:04.181Z,12.35
2023-03-29T09:26:31.838Z,13.27
2023-03-29T09:28:59.781Z,8.38
2023-03-29T09:31:27.354Z,12.50
2023-03-29T09:33:54.937Z,11.30
2023-03-29T09:36:25.197Z,9.00
2023-03-29T09:38:52.778Z,8.52
2023-03-29T09:41:20.365Z,10.07
2023-03-29T09:43:51.144Z,7.78
2023-03-29T09:46:18.791Z,14.38
2023-03-29T09:48:46.393Z,11.27
2023-03-29T09:51:16.577Z,11.80
2023-03-29T09:53:46.871Z,9.43
2023-03-29T09:56:14.570Z,8.50
2023-03-29T09:58:44.585Z,10.00
2023-03-29T10:01:12.129Z,10.90
2023-03-29T10:03:39.767Z,12.45
2023-03-29T10:06:09.663Z,12.38
2023-03-29T10:08:37.221Z,9.48
2023-03-29T10:11:05.014Z,18.25
2023-03-29T10:13:34.596Z,9.68
2023-03-29T10:16:02.406Z,7.35
2023-03-29T10:18:30.592Z,9.18
2023-03-29T10:21:00.658Z,8.73
2023-03-29T10:23:28.372Z,7.10
2023-03-29T10:25:56.032Z,7.53
2023-03-29T10:28:26.029Z,8.95
2023-03-29T10:30:53.593Z,10.73
2023-03-29T10:33:21.479Z,8.48
2023-03-29T10:35:51.595Z,6.50
2023-03-29T10:38:19.238Z,12.85
2023-03-29T10:40:47.154Z,11.68
2023-03-29T10:43:17.444Z,10.50
2023-03-29T10:45:45.627Z,11.55
2023-03-29T10:48:13.633Z,10.60
2023-03-29T10:50:45.533Z,10.40
2023-03-29T10:53:13.238Z,10.35
2023-03-29T10:55:40.980Z,10.82
2023-03-29T10:58:10.973Z,16.77
2023-03-29T11:00:38.597Z,10.95
2023-03-29T11:03:06.892Z,9.75
2023-03-29T11:05:36.948Z,11.65
2023-03-29T11:08:04.594Z,10.98
2023-03-29T11:10:32.410Z,11.93
2023-03-29T11:13:02.399Z,15.73
2023-03-29T11:15:30.064Z,13.10
2023-03-29T11:17:57.913Z,10.18
2023-03-29T11:20:27.906Z,10.50
2023-03-29T11:22:55.456Z,13.13
2023-03-29T11:25:23.264Z,14.80
2023-03-29T11:27:53.155Z,10.55
2023-03-29T11:30:20.750Z,11.85
2023-03-29T11:32:48.684Z,12.85
2023-03-29T11:35:18.705Z,11.90
2023-03-29T11:37:46.339Z,12.52
2023-03-29T11:40:13.952Z,12.18
2023-03-29T11:42:43.815Z,13.15
2023-03-29T11:45:11.524Z,10.10
2023-03-29T11:47:39.412Z,11.60
2023-03-29T11:50:11.067Z,11.52
2023-03-29T11:52:38.620Z,15.48
2023-03-29T11:55:06.244Z,12.88
2023-03-29T11:57:36.246Z,12.68
2023-03-29T12:00:03.906Z,9.55
2023-03-29T12:02:31.830Z,10.70
2023-03-29T12:05:01.830Z,11.55
2023-03-29T12:07:29.461Z,11.32
2023-03-29T12:09:57.282Z,11.73
2023-03-29T12:12:27.433Z,12.75
2023-03-29T12:14:55.001Z,17.02
2023-03-29T12:17:22.794Z,11.48
2023-03-29T12:19:52.890Z,11.65
2023-03-29T12:22:20.550Z,12.38
2023-03-29T12:24:48.485Z,11.52
2023-03-29T12:27:18.558Z,9.68
2023-03-29T12:29:46.138Z,14.65
2023-03-29T12:32:14.071Z,10.43
2023-03-29T12:34:44.421Z,10.80
2023-03-29T12:37:12.000Z,10.52
2023-03-29T12:39:39.690Z,11.07
2023-03-29T12:42:09.535Z,9.50
2023-03-29T12:44:37.093Z,12.88
2023-03-29T12:47:04.783Z,10.68
2023-03-29T12:49:32.895Z,11.38
2023-03-29T12:52:00.432Z,10.02
2023-03-29T12:54:28.394Z,13.40
2023-03-29T12:56:56.355Z,10.80
2023-03-29T12:59:23.989Z,8.82
2023-03-29T13:01:51.821Z,17.98
2023-03-29T13:04:22.001Z,9.30
2023-03-29T13:06:50.553Z,12.98
2023-03-29T13:09:18.859Z,16.15
2023-03-29T13:11:48.905Z,11.27
2023-03-29T13:14:16.474Z,11.65
2023-03-29T13:16:44.269Z,9.88
2023-03-29T13:19:11.934Z,12.48
2023-03-29T13:21:39.550Z,12.63
2023-03-29T13:24:07.205Z,11.25
2023-03-29T13:26:37.381Z,10.70
2023-03-29T13:29:04.988Z,10.80
2023-03-29T13:31:33.577Z,17.10
2023-03-29T13:34:01.474Z,11.15
2023-03-29T13:36:30.704Z,11.45
2023-03-29T13:38:59.476Z,12.18
2023-03-29T13:41:29.617Z,12.55
2023-03-29T13:43:57.206Z,11.45
2023-03-29T13:46:25.015Z,15.30
2023-03-29T13:48:54.624Z,15.82
2023-03-29T13:51:22.314Z,11.40
2023-03-29T13:53:50.344Z,10.50
2023-03-29T13:56:20.618Z,10.68
2023-03-29T13:58:48.233Z,12.10
2023-03-29T14:01:15.920Z,11.77
2023-03-29T14:03:45.881Z,11.15
2023-03-29T14:06:13.449Z,11.88
2023-03-29T14:08:41.220Z,14.98
2023-03-29T14:11:11.370Z,14.82
2023-03-29T14:13:39.069Z,13.77
2023-03-29T14:16:07.111Z,10.80
2023-03-29T14:18:35.510Z,13.75
2023-03-29T14:21:03.055Z,12.27
2023-03-29T14:23:30.869Z,12.93
2023-03-29T14:26:01.164Z,14.32
2023-03-29T14:28:28.880Z,12.50
2023-03-29T14:30:56.629Z,11.70
2023-03-29T14:33:26.655Z,13.65
2023-03-29T14:35:54.304Z,13.38
2023-03-29T14:38:21.894Z,12.73
2023-03-29T14:40:50.471Z,15.80
2023-03-29T14:43:18.094Z,12.73
2023-03-29T14:45:46.607Z,14.73
2023-03-29T14:48:17.091Z,17.30
2023-03-29T14:50:45.276Z,15.43
2023-03-29T14:53:12.881Z,14.25
2023-03-29T14:55:43.088Z,16.13
2023-03-29T14:58:11.301Z,17.65
2023-03-29T15:00:39.233Z,14.63
2023-03-29T15:03:09.326Z,14.57
2023-03-29T15:05:37.303Z,15.38
2023-03-29T15:08:05.236Z,15.57
2023-03-29T15:10:35.477Z,20.75
2023-03-29T15:13:03.044Z,15.30
2023-03-29T15:15:30.903Z,20.63
2023-03-29T15:18:00.851Z,14.80
2023-03-29T15:20:28.496Z,15.95
2023-03-29T15:22:56.273Z,14.20
2023-03-29T15:25:26.329Z,16.95
2023-03-29T15:27:54.729Z,15.25
2023-03-29T15:30:22.763Z,14.43
2023-03-29T15:32:50.445Z,16.13
2023-03-29T15:35:18.159Z,15.35
2023-03-29T15:37:45.780Z,14.10
2023-03-29T15:40:16.436Z,16.88
2023-03-29T15:42:44.133Z,16.10
2023-03-29T15:45:11.727Z,15.15
2023-03-29T15:47:39.425Z,15.15
2023-03-29T15:50:07.034Z,15.20
2023-03-29T15:52:34.685Z,16.83
2023-03-29T15:55:04.718Z,15.00
2023-03-29T15:57:32.702Z,17.67
2023-03-29T16:00:00.564Z,18.40
2023-03-29T16:02:30.654Z,14.60
2023-03-29T16:04:58.228Z,17.52
2023-03-29T16:07:25.939Z,18.25
2023-03-29T16:09:55.706Z,16.30
2023-03-29T16:12:23.318Z,15.18
2023-03-29T16:14:51.173Z,15.93
2023-03-29T16:17:21.044Z,19.90
2023-03-29T16:19:48.701Z,17.05
2023-03-29T16:22:16.533Z,17.08
2023-03-29T16:24:46.466Z,18.45
2023-03-29T16:27:14.064Z,18.95
2023-03-29T16:29:41.850Z,21.65
2023-03-29T16:32:11.980Z,19.38
2023-03-29T16:34:39.546Z,15.90
2023-03-29T16:37:07.225Z,19.80
2023-03-29T16:39:37.175Z,18.05
2023-03-29T16:42:04.945Z,20.88
2023-03-29T16:44:32.655Z,18.17
2023-03-29T16:47:02.427Z,21.10
2023-03-29T16:49:29.951Z,19.90
2023-03-29T16:51:57.584Z,18.50
2023-03-29T16:54:25.304Z,19.95
2023-03-29T16:56:52.940Z,21.55
2023-03-29T16:59:20.733Z,22.15
2023-03-29T17:01:48.741Z,16.83
2023-03-29T17:04:16.426Z,17.85
2023-03-29T17:06:44.620Z,20.95
2023-03-29T17:09:15.973Z,19.30
2023-03-29T17:11:43.724Z,17.83
2023-03-29T17:14:11.425Z,18.52
2023-03-29T17:16:41.375Z,19.00
2023-03-29T17:19:08.978Z,19.50
2023-03-29T17:21:36.796Z,18.15
2023-03-29T17:24:06.590Z,18.08
2023-03-29T17:26:34.197Z,17.65
2023-03-29T17:29:01.879Z,18.90
2023-03-29T17:31:31.706Z,17.38
2023-03-29T17:33:59.386Z,18.52
2023-03-29T17:36:27.418Z,20.83
2023-03-29T17:38:57.260Z,19.00
2023-03-29T17:41:24.895Z,20.27
2023-03-29T17:43:52.721Z,20.08
2023-03-29T17:46:22.632Z,22.98
2023-03-29T17:48:50.367Z,19.10
2023-03-29T17:51:18.260Z,20.00
2023-03-29T17:53:46.009Z,18.45
2023-03-29T17:56:13.561Z,19.52
2023-03-29T17:58:41.425Z,20.33
2023-03-29T18:01:11.317Z,23.23
2023-03-29T18:03:39.180Z,21.40
2023-03-29T18:06:07.487Z,20.60
2023-03-29T18:08:37.572Z,19.90
2023-03-29T18:11:09.664Z,20.17
2023-03-29T18:13:40.545Z,18.85
2023-03-29T18:16:10.957Z,20.17
2023-03-29T18:18:38.668Z,22.60
2023-03-29T18:21:08.636Z,20.35
2023-03-29T18:23:37.142Z,19.88
2023-03-29T18:26:04.989Z,19.83
2023-03-29T18:28:35.258Z,19.85
2023-03-29T18:31:03.015Z,19.83
2023-03-29T18:33:30.795Z,20.15
2023-03-29T18:36:00.645Z,22.00
2023-03-29T18:38:28.490Z,25.77
2023-03-29T18:40:56.066Z,23.13
2023-03-29T18:43:25.855Z,22.73
2023-03-29T18:45:53.721Z,19.63
2023-03-29T18:48:21.318Z,21.58
2023-03-29T18:50:51.118Z,22.52
2023-03-29T18:53:18.692Z,24.75
2023-03-29T18:55:46.222Z,23.52
2023-03-29T18:58:16.040Z,21.95
2023-03-29T19:00:43.705Z,22.50
2023-03-29T19:03:11.479Z,24.20
2023-03-29T19:05:41.391Z,22.45
2023-03-29T19:08:09.169Z,22.02
2023-03-29T19:10:36.747Z,23.05
2023-03-29T19:13:06.557Z,24.88
2023-03-29T19:15:34.367Z,23.55
2023-03-29T19:18:02.022Z,27.73
2023-03-29T19:20:31.838Z,24.23
2023-03-29T19:22:59.409Z,22.25
2023-03-29T19:25:27.002Z,21.67
2023-03-29T19:27:56.721Z,24.00
2023-03-29T19:30:24.490Z,24.92
2023-03-29T19:32:52.076Z,22.48
2023-03-29T19:35:22.189Z,23.70
2023-03-29T19:37:49.961Z,22.77
2023-03-29T19:40:17.631Z,23.27
2023-03-29T19:42:47.418Z,24.70
2023-03-29T19:45:15.533Z,25.85
2023-03-29T19:47:43.192Z,27.95
2023-03-29T19:50:13.064Z,22.75
2023-03-29T19:52:40.822Z,27.58
2023-03-29T19:55:08.382Z,22.92
2023-03-29T19:57:38.179Z,23.83
2023-03-29T20:00:05.825Z,22.75
2023-03-29T20:02:33.573Z,25.83
2023-03-29T20:05:03.384Z,26.48
2023-03-29T20:07:31.662Z,27.70
2023-03-29T20:10:00.678Z,27.90
2023-03-29T20:12:30.585Z,26.02
2023-03-29T20:14:58.379Z,25.38
2023-03-29T20:17:26.063Z,30.92
2023-03-29T20:19:53.914Z,26.20
2023-03-29T20:22:27.680Z,27.13
2023-03-29T20:25:05.874Z,27.13
2023-03-29T20:27:33.677Z,31.58
2023-03-29T20:30:01.486Z,25.48
2023-03-29T20:32:31.289Z,29.98
2023-03-29T20:34:59.105Z,26.95
2023-03-29T20:37:39.188Z,28.05
2023-03-29T20:40:08.230Z,30.20
2023-03-29T20:42:35.785Z,26.80
2023-03-29T20:45:05.565Z,27.45
2023-03-29T20:47:33.294Z,27.48
2023-03-29T20:50:00.891Z,32.22
2023-03-29T20:52:30.740Z,30.63
2023-03-29T20:54:58.753Z,27.65
2023-03-29T20:57:27.544Z,26.98
2023-03-29T20:59:58.387Z,26.98
2023-03-29T21:02:26.228Z,29.27
2023-03-29T21:04:53.963Z,29.27
2023-03-29T21:07:23.727Z,29.15
2023-03-29T21:09:51.381Z,32.70
2023-03-29T21:12:18.941Z,29.48
2023-03-29T21:14:48.674Z,29.83
2023-03-29T21:17:16.606Z,27.90
2023-03-29T21:19:44.316Z,31.92
2023-03-29T21:22:14.137Z,31.83
2023-03-29T21:24:41.846Z,30.77
2023-03-29T21:27:09.454Z,31.98
2023-03-29T21:29:39.272Z,30.33
2023-03-29T21:32:06.952Z,32.00
2023-03-29T21:34:35.328Z,31.50
2023-03-29T21:37:06.747Z,34.15
2023-03-29T21:39:34.897Z,32.90
2023-03-29T21:42:02.698Z,31.77
2023-03-29T21:44:34.363Z,33.83
2023-03-29T21:49:32.373Z,31.95
2023-03-29T21:52:02.484Z,32.05
2023-03-29T21:54:30.436Z,29.02
2023-03-29T21:56:58.302Z,33.25
2023-03-29T21:59:28.188Z,33.45
2023-03-29T22:01:56.338Z,37.30
2023-03-29T22:04:35.906Z,34.40
2023-03-29T22:07:06.991Z,35.88
2023-03-29T22:09:34.678Z,38.13
2023-03-29T22:12:02.470Z,34.53
2023-03-29T22:14:32.475Z,37.40
2023-03-29T22:16:59.991Z,34.45
2023-03-29T22:19:27.690Z,36.33
2023-03-29T22:21:57.750Z,33.47
2023-03-29T22:24:25.304Z,33.03
2023-03-29T22:26:52.898Z,33.72
2023-03-29T22:29:21.884Z,32.75
2023-03-29T22:31:49.505Z,29.50
2023-03-29T22:34:17.096Z,30.95
2023-03-29T22:36:46.915Z,33.22
2023-03-29T22:39:14.521Z,29.58
2023-03-29T22:41:42.107Z,36.60
2023-03-29T22:44:12.024Z,34.38
2023-03-29T22:46:40.237Z,36.30
2023-03-29T22:49:07.859Z,39.47
2023-03-29T22:51:37.678Z,36.78
2023-03-29T22:54:05.262Z,36.97
2023-03-29T22:56:33.429Z,36.63
2023-03-29T22:59:03.407Z,38.25
2023-03-29T23:01:31.081Z,45.30
2023-03-29T23:03:58.740Z,41.70
2023-03-29T23:06:28.719Z,37.47
2023-03-29T23:08:56.319Z,41.13
2023-03-29T23:11:23.914Z,36.90
2023-03-29T23:13:53.664Z,39.60
2023-03-29T23:16:21.306Z,39.50
2023-03-29T23:18:48.884Z,46.40
2023-03-29T23:21:18.873Z,41.45
2023-03-29T23:23:46.517Z,41.47
2023-03-29T23:26:14.074Z,42.05
2023-03-29T23:28:42.870Z,42.05
2023-03-29T23:31:10.693Z,38.08
2023-03-29T23:33:38.334Z,39.15
2023-03-29T23:36:08.188Z,40.17
2023-03-29T23:38:35.773Z,38.17
2023-03-29T23:41:03.663Z,37.72
2023-03-29T23:43:33.032Z,41.75
2023-03-29T23:46:00.642Z,38.60
2023-03-29T23:48:28.356Z,39.67
2023-03-29T23:50:58.236Z,40.88
2023-03-29T23:53:25.820Z,37.60
2023-03-29T23:55:53.364Z,37.80
2023-03-29T23:58:23.367Z,35.05
